Terminal Aerodrome Forecast
Issued by NWS

Home | Current Version | Previous Version | Text Only | Print | Product List | Glossary Off
Versions: 1 2 3 4 5 6 7 8 9 10 11 12 13 14 15 16

722
FTUS43 KMPX 181454 AAA
TAFRWF
TAF AMD
KRWF 181454Z 1815/1912 34011KT 6SM SHRA VCTS SCT030CB BKN045
      TEMPO 1817/1820 2SM TSRA BKN030CB BKN035
     FM182100 04008KT P6SM SCT060 BKN110
     FM190200 04005KT P6SM SKC=

USA.gov is the U.S. government's official web portal to all federal, state and local government web resources and services.